Time;durP1;ratioP1;P1;durP2;ratioP2;P2;SDS_P1;SDS_P2;PMS_P1;PMS_P2;Temp;Humidity;BMP_temperature;BMP_pressure;BME280_temperature;BME280_humidity;BME280_pressure;Samples;Min_cycle;Max_cycle;Signal;HPM_P1;HPM_P2
2021/05/17 00:01:03;;;;;;;;;;;26.60;93.90;;;;;;5064064;28;19907;-64
2021/05/17 00:03:31;;;;;;;;;;;26.60;93.90;;;;;;5063796;28;20245;-59
2021/05/17 00:05:59;;;;;;;;;;;26.60;93.80;;;;;;5073330;28;19904;-58
2021/05/17 00:08:25;;;;;;;;;;;26.60;93.80;;;;;;5084552;28;20070;-59
2021/05/17 00:10:54;;;;;;;;;;;26.60;93.80;;;;;;5084159;28;19900;-59
2021/05/17 00:13:24;;;;;;;;;;;26.60;93.90;;;;;;5099479;28;19909;-59
2021/05/17 00:15:52;;;;;;;;;;;26.60;93.80;;;;;;5084029;28;19901;-56
2021/05/17 00:18:18;;;;;;;;;;;26.70;93.90;;;;;;5084308;28;19908;-57
2021/05/17 00:20:45;;;;;;;;;;;26.60;93.90;;;;;;5080642;28;19905;-59
2021/05/17 00:23:12;;;;;;;;;;;26.70;93.90;;;;;;5082622;28;19912;-59
2021/05/17 00:25:38;;;;;;;;;;;26.60;93.90;;;;;;5092882;28;20191;-59
2021/05/17 00:28:04;;;;;;;;;;;26.70;94.00;;;;;;5073211;28;19915;-58
2021/05/17 00:30:31;;;;;;;;;;;26.60;94.00;;;;;;5077009;28;19904;-59
2021/05/17 00:32:58;;;;;;;;;;;26.60;94.10;;;;;;5080931;28;20007;-59
2021/05/17 00:35:27;;;;;;;;;;;26.60;94.20;;;;;;5084140;28;19943;-59
2021/05/17 00:37:57;;;;;;;;;;;26.60;94.10;;;;;;5084084;28;19904;-59
2021/05/17 00:40:24;;;;;;;;;;;26.60;94.10;;;;;;5085173;28;19904;-59
2021/05/17 00:42:52;;;;;;;;;;;26.60;94.20;;;;;;5087634;28;20240;-58
2021/05/17 00:45:21;;;;;;;;;;;26.60;94.20;;;;;;5103514;28;19908;-58
2021/05/17 00:47:52;;;;;;;;;;;26.60;94.00;;;;;;5103510;28;20207;-59
2021/05/17 00:50:20;;;;;;;;;;;26.60;94.00;;;;;;5087653;28;20143;-58
2021/05/17 00:52:48;;;;;;;;;;;26.60;93.90;;;;;;5087779;28;19907;-60
2021/05/17 00:55:20;;;;;;;;;;;26.50;93.80;;;;;;5103416;28;19908;-60
2021/05/17 00:57:46;;;;;;;;;;;26.60;94.00;;;;;;5087143;28;20139;-58
2021/05/17 01:00:17;;;;;;;;;;;26.50;93.70;;;;;;5086238;28;20077;-60
2021/05/17 01:02:43;;;;;;;;;;;26.50;93.70;;;;;;5087355;28;20230;-59
2021/05/17 01:05:12;;;;;;;;;;;26.60;93.70;;;;;;5086830;28;19915;-58
2021/05/17 01:07:49;;;;;;;;;;;26.50;93.60;;;;;;5086016;28;19901;-61
2021/05/17 01:10:19;;;;;;;;;;;26.50;93.70;;;;;;5087046;28;19916;-59
2021/05/17 01:12:46;;;;;;;;;;;26.60;93.90;;;;;;5087254;28;19908;-60
2021/05/17 01:15:13;;;;;;;;;;;26.60;93.70;;;;;;5086840;28;19912;-60
2021/05/17 01:17:40;;;;;;;;;;;26.60;93.80;;;;;;5087174;28;20097;-61
2021/05/17 01:20:10;;;;;;;;;;;26.50;94.00;;;;;;5086916;28;19915;-58
2021/05/17 01:23:01;;;;;;;;;;;26.60;94.10;;;;;;5087205;28;19924;-59
2021/05/17 01:25:32;;;;;;;;;;;26.60;94.50;;;;;;5087127;28;19915;-60
2021/05/17 01:27:59;;;;;;;13.10;3.50;;;26.50;94.40;;;;;;5086733;28;19901;-58
2021/05/17 01:30:28;;;;;;;10.38;4.07;;;26.60;94.50;;;;;;5085439;28;20020;-59
2021/05/17 01:32:56;;;;;;;;;;;26.60;94.60;;;;;;5085728;28;20021;-61
2021/05/17 01:35:27;;;;;;;;;;;26.60;94.60;;;;;;5086794;28;19932;-60
2021/05/17 01:37:54;;;;;;;;;;;26.50;94.60;;;;;;5086756;28;20231;-58
2021/05/17 01:40:20;;;;;;;;;;;26.50;94.60;;;;;;5086902;28;19905;-58
2021/05/17 01:42:47;;;;;;;;;;;26.50;94.70;;;;;;5086201;28;19942;-59
2021/05/17 01:45:14;;;;;;;;;;;26.50;94.70;;;;;;5085624;28;19905;-59
2021/05/17 01:47:42;;;;;;;;;;;26.50;94.60;;;;;;5086813;28;19900;-59
2021/05/17 01:50:09;;;;;;;;;;;26.50;94.60;;;;;;5085381;28;19916;-61
2021/05/17 01:52:36;;;;;;;;;;;26.60;94.60;;;;;;5084922;28;20109;-59
2021/05/17 01:55:07;;;;;;;;;;;26.50;94.50;;;;;;5086855;28;19912;-60
2021/05/17 01:57:34;;;;;;;;;;;26.60;94.50;;;;;;5084883;28;19900;-59
2021/05/17 02:00:04;;;;;;;;;;;26.50;94.30;;;;;;5068786;28;19908;-63
2021/05/17 02:02:32;;;;;;;;;;;26.50;94.20;;;;;;5086617;28;19942;-59
2021/05/17 02:05:01;;;;;;;;;;;26.50;94.00;;;;;;5084740;28;20200;-48
2021/05/17 02:07:27;;;;;;;;;;;26.50;93.90;;;;;;5086410;28;19963;-49
2021/05/17 02:09:59;;;;;;;;;;;26.50;93.80;;;;;;5086338;28;19987;-52
2021/05/17 02:12:31;;;;;;;;;;;26.50;93.70;;;;;;5085734;28;19950;-55
2021/05/17 02:14:59;;;;;;;;;;;26.60;93.80;;;;;;5086395;28;19904;-48
2021/05/17 02:17:25;;;;;;;;;;;26.60;93.80;;;;;;5085838;28;19919;-51
2021/05/17 02:19:52;;;;;;;;;;;26.60;93.60;;;;;;5085086;28;19912;-56
2021/05/17 02:22:19;;;;;;;;;;;26.60;93.60;;;;;;5082753;28;19928;-58
2021/05/17 02:24:47;;;;;;;;;;;26.60;93.60;;;;;;5083565;28;20096;-52
2021/05/17 02:27:16;;;;;;;;;;;26.60;93.60;;;;;;5076918;28;19908;-48
2021/05/17 02:29:46;;;;;;;;;;;26.70;93.60;;;;;;5092095;28;19977;-51
2021/05/17 02:32:24;;;;;;;;;;;26.60;93.50;;;;;;5075132;28;19916;-58
2021/05/17 02:34:52;;;;;;;;;;;26.70;93.50;;;;;;5076684;28;20203;-48
2021/05/17 02:37:22;;;;;;;;;;;26.60;93.50;;;;;;5076589;28;19900;-54
2021/05/17 02:39:51;;;;;;;;;;;26.60;93.60;;;;;;5068558;28;19943;-56
2021/05/17 02:42:20;;;;;;;;;;;26.70;93.70;;;;;;5065354;28;19908;-55
2021/05/17 02:44:49;;;;;;;;;;;26.60;93.60;;;;;;5066055;28;19913;-49
2021/05/17 02:47:28;;;;;;;;;;;26.60;93.60;;;;;;5065620;28;19923;-50
2021/05/17 02:49:55;;;;;;;;;;;26.60;93.60;;;;;;5065364;28;19909;-54
2021/05/17 02:52:22;;;;;;;;;;;26.70;93.70;;;;;;5064259;28;19904;-54
2021/05/17 02:55:09;;;;;;;;;;;26.70;93.70;;;;;;5064491;28;19915;-52
2021/05/17 02:57:40;;;;;;;;;;;26.70;93.60;;;;;;5065300;28;19938;-53
2021/05/17 03:00:27;;;;;;;;;;;26.60;93.60;;;;;;5065623;28;19912;-47
2021/05/17 03:03:20;;;;;;;;;;;26.60;93.60;;;;;;5064620;28;19900;-52
2021/05/17 03:05:53;;;;;;;;;;;26.60;93.80;;;;;;5063694;28;20224;-58
2021/05/17 03:08:24;;;;;;;;;;;26.60;93.80;;;;;;5064083;28;19936;-50
2021/05/17 03:10:55;;;;;;;;;;;26.70;93.80;;;;;;5065114;28;19911;-52
2021/05/17 03:13:22;;;;;;;;;;;26.70;93.90;;;;;;5064930;28;19927;-47
2021/05/17 03:15:48;;;;;;;;;;;26.60;93.80;;;;;;5065146;28;19936;-59
2021/05/17 03:18:15;;;;;;;;;;;26.70;93.90;;;;;;5063906;28;19980;-56
2021/05/17 03:20:41;;;;;;;;;;;26.70;93.90;;;;;;5064964;28;19911;-55
2021/05/17 03:23:10;;;;;;;;;;;26.70;94.00;;;;;;5064014;28;19916;-49
2021/05/17 03:25:38;;;;;;;;;;;26.60;94.00;;;;;;5064839;28;20177;-54
2021/05/17 03:28:05;;;;;;;;;;;26.60;94.00;;;;;;5064760;28;19936;-51
2021/05/17 03:30:31;;;;;;;;;;;26.70;93.90;;;;;;5063745;28;19955;-49
2021/05/17 03:32:57;;;;;;;;;;;26.70;93.90;;;;;;5064777;28;19928;-52
2021/05/17 03:35:23;;;;;;;;;;;26.70;93.90;;;;;;5064570;28;19942;-50
2021/05/17 03:37:52;;;;;;;;;;;26.70;94.00;;;;;;5064647;28;19901;-51
2021/05/17 03:40:18;;;;;;;;;;;26.60;94.00;;;;;;5064681;28;20166;-52
2021/05/17 03:42:45;;;;;;;;;;;26.60;93.90;;;;;;5064301;28;19945;-57
2021/05/17 03:45:12;;;;;;;;;;;26.60;94.20;;;;;;5064396;28;19905;-52
2021/05/17 03:47:38;;;;;;;;;;;26.60;93.90;;;;;;5064418;28;19901;-54
2021/05/17 03:50:06;;;;;;;;;;;26.60;94.00;;;;;;5064958;28;19909;-51
2021/05/17 03:52:36;;;;;;;;;;;26.60;94.00;;;;;;5064404;28;19920;-50
2021/05/17 03:55:02;;;;;;;;;;;26.60;93.90;;;;;;5064831;28;19912;-52
2021/05/17 03:57:28;;;;;;;;;;;26.60;93.80;;;;;;5064093;28;19909;-55
2021/05/17 03:59:54;;;;;;;;;;;26.60;93.80;;;;;;5064933;28;19913;-50
2021/05/17 04:02:23;;;;;;;;;;;26.60;93.80;;;;;;5064464;28;19967;-53
2021/05/17 04:05:09;;;;;;;;;;;26.60;93.70;;;;;;5063978;28;19948;-52
2021/05/17 04:15:33;;;;;;;;;;;26.60;93.60;;;;;;5063800;28;19907;-50
2021/05/17 04:18:00;;;;;;;;;;;26.60;93.60;;;;;;5064284;28;19935;-47
2021/05/17 04:20:26;;;;;;;;;;;26.60;93.60;;;;;;5064194;28;19971;-56
2021/05/17 04:22:52;;;;;;;;;;;26.60;93.60;;;;;;5079483;28;19901;-53
2021/05/17 04:25:18;;;;;;;;;;;26.60;93.60;;;;;;5064499;28;19909;-51
2021/05/17 04:27:44;;;;;;;;;;;26.60;93.60;;;;;;5063955;28;19901;-53
2021/05/17 04:30:11;;;;;;;;;;;26.60;93.50;;;;;;5063951;28;19916;-51
2021/05/17 04:32:37;;;;;;;;;;;26.60;93.40;;;;;;5063973;28;19907;-47
2021/05/17 04:35:04;;;;;;;;;;;26.60;93.40;;;;;;5064042;28;19912;-52
2021/05/17 04:37:30;;;;;;;;;;;26.60;93.30;;;;;;5064066;28;19900;-49
2021/05/17 04:39:56;;;;;;;;;;;26.60;93.20;;;;;;5063982;28;20138;-48
2021/05/17 04:42:23;;;;;;;;;;;26.50;93.10;;;;;;5063913;28;19943;-48
2021/05/17 04:44:49;;;;;;;;;;;26.50;93.10;;;;;;5063642;28;19905;-57
2021/05/17 04:47:15;;;;;;;;;;;26.50;93.00;;;;;;5062958;28;19909;-48
2021/05/17 04:49:41;;;;;;;;;;;26.50;93.00;;;;;;5063788;28;19900;-48
2021/05/17 04:52:07;;;;;;;;;;;26.50;92.90;;;;;;5063971;28;19907;-50
2021/05/17 04:54:34;;;;;;;;;;;26.50;92.90;;;;;;5063731;28;19901;-50
2021/05/17 04:57:00;;;;;;;;;;;26.50;92.80;;;;;;5064242;28;20242;-48
2021/05/17 04:59:26;;;;;;;;;;;26.50;92.80;;;;;;5063816;28;19901;-49
2021/05/17 05:01:52;;;;;;;;;;;26.50;92.80;;;;;;5064127;28;19947;-54
2021/05/17 05:04:18;;;;;;;;;;;26.50;92.90;;;;;;5063480;28;19978;-46
2021/05/17 05:06:45;;;;;;;;;;;26.50;92.90;;;;;;5064150;28;19984;-47
2021/05/17 05:09:11;;;;;;;;;;;26.40;92.90;;;;;;5062559;28;19904;-55
2021/05/17 05:11:37;;;;;;;;;;;26.40;93.00;;;;;;5064372;28;20117;-52
2021/05/17 05:14:04;;;;;;;;;;;26.40;93.00;;;;;;5063672;28;19904;-47
2021/05/17 05:16:30;;;;;;;;;;;26.40;93.00;;;;;;5064145;28;20137;-48
2021/05/17 05:18:56;;;;;;;;;;;26.40;93.10;;;;;;5063640;28;20184;-51
2021/05/17 05:21:22;;;;;;;;;;;26.40;93.10;;;;;;5063948;28;19932;-59
2021/05/17 05:23:49;;;;;;;;;;;26.40;93.10;;;;;;5063475;28;19905;-49
2021/05/17 05:34:15;;;;;;;;;;;26.40;93.20;;;;;;5067078;28;19913;-51
2021/05/17 05:36:41;;;;;;;;;;;26.40;93.20;;;;;;5067314;28;19909;-50
2021/05/17 05:39:07;;;;;;;;;;;26.40;93.30;;;;;;5067188;28;19912;-47
2021/05/17 05:41:34;;;;;;;;;;;26.40;93.40;;;;;;5067324;28;19971;-53
2021/05/17 05:44:00;;;;;;;;;;;26.40;93.40;;;;;;5066614;28;20000;-50
2021/05/17 05:46:27;;;;;;;;;;;26.40;93.50;;;;;;5067208;28;19909;-50
2021/05/17 05:48:56;;;;;;;;;;;26.40;93.40;;;;;;5066898;28;20189;-53
2021/05/17 05:51:25;;;;;;;;;;;26.40;93.40;;;;;;5066972;28;20084;-56
2021/05/17 05:53:51;;;;;;;;;;;26.40;93.30;;;;;;5066656;28;19905;-45
2021/05/17 05:56:17;;;;;;;;;;;26.40;93.30;;;;;;5066990;28;19905;-56
2021/05/17 05:58:45;;;;;;;;;;;26.40;93.40;;;;;;5065235;28;19982;-54
2021/05/17 06:01:11;;;;;;;;;;;26.40;93.40;;;;;;5066721;28;19936;-47
2021/05/17 06:03:37;;;;;;;;;;;26.40;93.40;;;;;;5066377;28;19942;-46
2021/05/17 06:06:05;;;;;;;;;;;26.30;93.30;;;;;;5065315;28;20101;-55
2021/05/17 06:08:33;;;;;;;;;;;26.30;93.30;;;;;;5065533;28;19923;-54
2021/05/17 06:11:00;;;;;;;;;;;26.30;93.30;;;;;;5066601;28;20243;-52
2021/05/17 06:13:27;;;;;;;;;;;26.30;93.30;;;;;;5066280;28;19900;-52
2021/05/17 06:15:53;;;;;;;;;;;26.30;93.40;;;;;;5066622;28;20015;-49
2021/05/17 06:18:19;;;;;;;;;;;26.30;93.50;;;;;;5066191;28;19928;-50
2021/05/17 06:20:46;;;;;;;;;;;26.30;93.50;;;;;;5066262;28;19976;-48
2021/05/17 06:23:15;;;;;;;;;;;26.30;93.40;;;;;;5066368;28;19912;-54
2021/05/17 06:25:42;;;;;;;;;;;26.30;93.50;;;;;;5066390;28;20181;-51
2021/05/17 06:28:09;;;;;;;;;;;26.30;93.50;;;;;;5065936;28;19907;-45
2021/05/17 06:30:43;;;;;;;;;;;26.30;93.40;;;;;;5066177;28;19932;-50
2021/05/17 06:33:10;;;;;;;;;;;26.30;93.50;;;;;;5066040;28;20192;-52
2021/05/17 06:35:45;;;;;;;;;;;26.30;93.40;;;;;;5065958;28;19951;-53
2021/05/17 06:38:12;;;;;;;;;;;26.30;93.40;;;;;;5065827;28;19901;-55
2021/05/17 06:40:38;;;;;;;;;;;26.30;93.40;;;;;;5065640;28;19930;-45
2021/05/17 06:43:04;;;;;;;;;;;26.30;93.30;;;;;;5065659;28;19911;-54
2021/05/17 06:45:31;;;;;;;;;;;26.30;93.30;;;;;;5065743;28;19912;-49
2021/05/17 06:47:57;;;;;;;;;;;26.30;93.30;;;;;;5065524;28;19905;-50
2021/05/17 06:50:24;;;;;;;;;;;26.30;93.20;;;;;;5067513;28;19914;-49
2021/05/17 06:52:51;;;;;;;;;;;26.30;93.30;;;;;;5073820;28;19908;-46
2021/05/17 06:55:21;;;;;;;;;;;26.30;93.30;;;;;;5075215;28;19987;-51
2021/05/17 07:00:30;;;;;;;;;;;26.20;93.30;;;;;;5077614;28;19913;-46
2021/05/17 07:03:00;;;;;;;;;;;26.20;93.30;;;;;;5085120;28;20180;-53
2021/05/17 07:05:26;;;;;;;;;;;26.30;93.40;;;;;;5085534;28;19908;-53
2021/05/17 07:13:24;;;;;;;;;;;26.20;93.50;;;;;;5085131;28;19908;-53
2021/05/17 07:15:50;;;;;;;;;;;26.20;93.50;;;;;;5085286;28;19971;-48
2021/05/17 07:18:16;;;;;;;;;;;26.20;93.60;;;;;;5085027;28;19907;-56
2021/05/17 07:25:58;;;;;;;;;;;26.20;93.60;;;;;;5085221;28;20096;-50
2021/05/17 07:28:26;;;;;;;;;;;26.10;93.60;;;;;;5084953;28;19916;-48
2021/05/17 07:30:52;;;;;;;;;;;26.10;93.60;;;;;;5085233;28;19955;-56
2021/05/17 07:33:19;;;;;;;;;;;26.10;93.60;;;;;;5084751;28;19900;-50
2021/05/17 07:35:45;;;;;;;;;;;26.20;93.70;;;;;;5085036;28;20180;-49
2021/05/17 07:38:11;;;;;;;;;;;26.20;93.60;;;;;;5084758;28;19900;-53
2021/05/17 07:40:37;;;;;;;;;;;26.20;93.60;;;;;;5084816;28;19908;-47
2021/05/17 07:43:04;;;;;;;;;;;26.20;93.50;;;;;;5084676;28;19975;-49
2021/05/17 07:45:30;;;;;;;;;;;26.20;93.60;;;;;;5084838;28;19964;-49
2021/05/17 07:47:57;;;;;;;;;;;26.10;93.60;;;;;;5084901;28;20015;-49
2021/05/17 07:50:23;;;;;;;;;;;26.10;93.60;;;;;;5084430;28;19942;-53
2021/05/17 07:52:49;;;;;;;;;;;26.10;93.70;;;;;;5084536;28;19954;-49
2021/05/17 07:55:20;;;;;;;;;;;26.10;93.70;;;;;;5084859;28;19930;-51
2021/05/17 07:57:50;;;;;;;;;;;26.10;93.70;;;;;;5084784;28;19908;-50
2021/05/17 08:00:16;;;;;;;;;;;26.10;93.70;;;;;;5084514;28;20234;-48
2021/05/17 08:02:42;;;;;;;;;;;26.10;93.70;;;;;;5084332;28;19900;-47
2021/05/17 08:05:08;;;;;;;;;;;26.10;93.60;;;;;;5084571;28;20062;-46
2021/05/17 08:07:37;;;;;;;;;;;26.10;93.70;;;;;;5083223;28;20132;-49
2021/05/17 08:10:05;;;;;;;;;;;26.10;93.60;;;;;;5084556;28;19915;-59
2021/05/17 08:12:31;;;;;;;;;;;26.10;93.60;;;;;;5100159;28;19943;-48
2021/05/17 08:14:58;;;;;;;;;;;26.10;93.50;;;;;;5084410;28;19963;-46
2021/05/17 08:17:24;;;;;;;;;;;26.10;93.60;;;;;;5084386;28;19904;-52
2021/05/17 08:19:50;;;;;;;;;;;26.10;93.60;;;;;;5084265;28;19921;-51
2021/05/17 08:22:16;;;;;;;;;;;26.10;93.60;;;;;;5084403;28;19905;-48
2021/05/17 08:24:43;;;;;;;;;;;26.10;93.60;;;;;;5084099;28;20077;-52
2021/05/17 08:27:09;;;;;;;;;;;26.10;93.60;;;;;;5084345;28;19971;-48
2021/05/17 08:29:37;;;;;;;;;;;26.10;93.50;;;;;;5084495;28;19923;-57
2021/05/17 08:32:06;;;;;;;;;;;26.10;93.50;;;;;;5084785;28;19939;-54
2021/05/17 08:34:33;;;;;;;;;;;26.10;93.50;;;;;;5084131;28;19927;-57
2021/05/17 08:37:00;;;;;;;;;;;26.10;93.60;;;;;;5084681;28;20169;-49
2021/05/17 08:39:26;;;;;;;;;;;26.10;93.50;;;;;;5084299;28;19967;-49
2021/05/17 08:41:52;;;;;;;;;;;26.10;93.50;;;;;;5084637;28;20180;-49
2021/05/17 08:44:19;;;;;;;;;;;26.10;93.50;;;;;;5083906;28;19948;-56
2021/05/17 08:46:48;;;;;;;;;;;26.20;93.60;;;;;;5084586;28;19911;-55
2021/05/17 08:49:17;;;;;;;;;;;26.10;93.70;;;;;;5084142;28;19974;-49
2021/05/17 08:51:44;;;;;;;;;;;26.10;93.70;;;;;;5084567;28;19905;-56
2021/05/17 08:54:11;;;;;;;;;;;26.10;93.80;;;;;;5084237;28;19905;-51
2021/05/17 08:56:43;;;;;;;;;;;26.10;93.70;;;;;;5084883;28;19904;-53
2021/05/17 08:59:10;;;;;;;;;;;26.10;93.80;;;;;;5084402;28;19904;-48
2021/05/17 09:01:36;;;;;;;;;;;26.20;93.90;;;;;;5084597;28;20172;-51
2021/05/17 09:04:04;;;;;;;;;;;26.10;93.90;;;;;;5087355;28;19970;-48
2021/05/17 09:06:38;;;;;;;;;;;26.10;94.00;;;;;;5088051;28;19915;-47
2021/05/17 09:09:21;;;;;;;;;;;26.10;94.00;;;;;;5087388;28;20201;-50
2021/05/17 09:11:48;;;;;;;;;;;26.10;94.10;;;;;;5088179;28;20173;-53
2021/05/17 09:14:15;;;;;;;;;;;26.10;94.10;;;;;;5087512;28;19902;-51
2021/05/17 09:17:04;;;;;;;;;;;26.10;94.10;;;;;;5088039;28;19923;-51
2021/05/17 09:19:32;;;;;;;;;;;26.10;94.10;;;;;;5082110;28;19908;-52
2021/05/17 09:22:00;;;;;;;;;;;26.10;94.00;;;;;;5087820;28;19923;-55
2021/05/17 09:24:33;;;;;;;;;;;26.10;93.90;;;;;;5087443;28;19904;-55
2021/05/17 09:26:59;;;;;;;;;;;26.10;93.90;;;;;;5087673;28;19975;-47
2021/05/17 09:29:27;;;;;;;;;;;26.10;93.90;;;;;;5087745;28;20027;-49
2021/05/17 09:31:53;;;;;;;;;;;26.10;93.80;;;;;;5087750;28;19908;-48
2021/05/17 09:34:32;;;;;;;;;;;26.10;93.80;;;;;;5087228;28;19901;-52
2021/05/17 09:37:01;;;;;;;;;;;26.10;93.80;;;;;;5087739;28;19908;-47
2021/05/17 09:39:27;;;;;;;;;;;26.10;93.80;;;;;;5087324;28;19939;-57
2021/05/17 09:41:56;;;;;;;;;;;26.10;93.70;;;;;;5087594;28;19946;-49
2021/05/17 09:44:32;;;;;;;;;;;26.10;93.70;;;;;;5087020;28;19909;-52
2021/05/17 09:47:08;;;;;;;;;;;26.10;93.70;;;;;;5087514;28;19909;-49
2021/05/17 09:49:34;;;;;;;;;;;26.10;93.70;;;;;;5086901;28;19965;-52
2021/05/17 09:52:04;;;;;;;;;;;26.10;93.70;;;;;;5087735;28;19921;-51
2021/05/17 09:54:44;;;;;;;;;;;26.10;93.70;;;;;;5087233;28;19900;-47
2021/05/17 09:57:14;;;;;;;;;;;26.10;93.70;;;;;;5086920;28;19908;-55
2021/05/17 09:59:44;;;;;;;;;;;26.10;93.70;;;;;;5086715;28;19979;-47
2021/05/17 10:02:25;;;;;;;;;;;26.00;93.60;;;;;;5086733;28;19915;-56
2021/05/17 10:04:52;;;;;;;;;;;26.10;93.70;;;;;;5086243;28;19958;-60
2021/05/17 10:07:18;;;;;;;8.10;2.05;;;26.00;93.70;;;;;;5086207;28;19931;-50
2021/05/17 10:09:45;;;;;;;8.80;2.40;;;26.10;94.00;;;;;;5086082;28;20016;-51
2021/05/17 10:12:12;;;;;;;9.40;1.92;;;26.00;93.70;;;;;;5085928;28;20028;-55
2021/05/17 10:14:39;;;;;;;13.15;2.10;;;26.00;93.70;;;;;;5085656;28;20023;-53
2021/05/17 10:17:05;;;;;;;9.77;2.22;;;26.00;93.70;;;;;;5086552;28;20042;-48
2021/05/17 10:19:33;;;;;;;13.45;2.15;;;26.00;93.70;;;;;;5086402;28;20357;-49
2021/05/17 10:22:01;;;;;;;5.53;2.10;;;26.00;93.70;;;;;;5086355;28;20196;-53
2021/05/17 10:24:28;;;;;;;6.13;1.90;;;26.00;93.80;;;;;;5085693;28;20028;-48
2021/05/17 10:26:55;;;;;;;11.27;2.20;;;26.00;93.70;;;;;;5086051;28;20016;-48
2021/05/17 10:29:33;;;;;;;6.90;2.13;;;26.00;93.80;;;;;;5086011;28;20029;-51
2021/05/17 10:32:01;;;;;;;10.77;2.00;;;26.00;93.80;;;;;;5086316;28;20050;-51
2021/05/17 10:34:28;;;;;;;6.53;1.90;;;26.00;93.80;;;;;;5085763;28;20087;-55
2021/05/17 10:36:59;;;;;;;5.38;2.15;;;26.00;93.80;;;;;;5086320;28;20035;-51
2021/05/17 10:39:38;;;;;;;9.55;2.13;;;26.00;93.90;;;;;;5085771;28;20083;-51
2021/05/17 10:42:51;;;;;;;7.00;2.33;;;26.00;93.90;;;;;;5085996;28;20046;-47
2021/05/17 10:48:19;;;;;;;11.30;2.20;;;26.00;93.80;;;;;;5085241;28;20086;-52
2021/05/17 10:51:07;;;;;;;6.65;2.30;;;26.00;93.80;;;;;;5085394;28;20066;-51
2021/05/17 10:53:58;;;;;;;10.15;2.45;;;26.00;93.80;;;;;;5085426;28;20051;-52
2021/05/17 11:02:12;;;;;;;14.88;3.00;;;26.00;93.80;;;;;;5085790;28;20094;-53
2021/05/17 11:04:58;;;;;;;9.13;2.70;;;26.00;93.80;;;;;;5084732;28;20068;-50
2021/05/17 11:07:32;;;;;;;9.55;2.42;;;26.00;93.80;;;;;;5085390;28;20024;-51
2021/05/17 11:10:10;;;;;;;9.20;3.03;;;26.00;93.80;;;;;;5084785;28;20013;-47
2021/05/17 11:12:45;;;;;;;9.48;2.63;;;26.00;93.80;;;;;;5084912;28;20057;-48
2021/05/17 11:15:19;;;;;;;7.53;3.00;;;26.00;93.80;;;;;;5084991;28;20320;-52
2021/05/17 11:18:08;;;;;;;9.05;2.88;;;26.00;93.80;;;;;;5084597;28;20321;-51
2021/05/17 11:20:40;;;;;;;9.00;2.85;;;26.00;93.80;;;;;;5084632;28;20028;-52
2021/05/17 11:23:14;;;;;;;9.20;3.08;;;26.00;93.80;;;;;;5084382;28;20268;-53
2021/05/17 11:26:05;;;;;;;5.80;2.50;;;26.00;93.80;;;;;;5083905;28;20182;-49
2021/05/17 11:28:38;;;;;;;9.70;2.60;;;26.00;93.60;;;;;;5084846;28;20012;-49
2021/05/17 11:31:38;;;;;;;13.63;3.58;;;26.00;93.60;;;;;;5084560;28;20035;-50
2021/05/17 11:34:07;;;;;;;8.75;3.05;;;26.00;93.60;;;;;;5083721;28;20169;-55
2021/05/17 11:36:51;;;;;;;13.23;2.90;;;26.00;93.60;;;;;;5084912;28;20032;-52
2021/05/17 11:39:19;;;;;;;9.25;2.95;;;26.00;93.60;;;;;;5084448;28;20044;-55
2021/05/17 11:41:47;;;;;;;9.00;2.50;;;26.00;93.60;;;;;;5084674;28;20035;-50
2021/05/17 11:44:35;;;;;;;12.23;3.72;;;26.00;93.60;;;;;;5084195;28;20038;-51
2021/05/17 11:47:21;;;;;;;8.45;3.10;;;26.00;93.50;;;;;;5084557;28;20066;-51
2021/05/17 11:49:49;;;;;;;7.90;3.83;;;26.00;93.50;;;;;;5084158;28;20358;-47
2021/05/17 11:52:26;;;;;;;9.70;4.45;;;26.00;93.70;;;;;;5083920;28;20025;-52
2021/05/17 11:54:54;;;;;;;13.43;4.60;;;26.00;93.50;;;;;;5084244;28;20051;-51
2021/05/17 11:57:36;;;;;;;12.27;4.25;;;26.00;93.40;;;;;;5082989;28;20024;-50
2021/05/17 12:00:11;;;;;;;15.15;4.32;;;26.00;93.40;;;;;;5084031;28;20024;-49
2021/05/17 12:02:52;;;;;;;11.55;4.20;;;26.00;93.40;;;;;;5084192;28;20036;-54
2021/05/17 12:05:20;;;;;;;12.68;3.92;;;26.00;93.40;;;;;;5084334;28;20068;-48
2021/05/17 12:07:52;;;;;;;11.30;4.05;;;26.00;93.40;;;;;;5084157;28;20024;-51
2021/05/17 12:10:21;;;;;;;10.93;3.83;;;26.00;93.40;;;;;;5083924;28;20020;-53
2021/05/17 12:12:52;;;;;;;10.25;3.95;;;26.00;93.40;;;;;;5084172;28;20048;-50
2021/05/17 12:15:20;;;;;;;11.07;3.42;;;26.00;93.40;;;;;;5083959;28;20020;-51
2021/05/17 12:17:47;;;;;;;14.23;3.90;;;26.10;93.50;;;;;;5083949;28;20018;-56
2021/05/17 12:20:17;;;;;;;18.08;4.10;;;26.00;93.50;;;;;;5084282;28;20028;-47
2021/05/17 12:22:52;;;;;;;16.55;4.05;;;26.10;93.60;;;;;;5083945;28;20021;-54
2021/05/17 12:25:35;;;;;;;13.63;4.03;;;26.10;93.60;;;;;;5082490;28;20032;-56
2021/05/17 12:28:03;;;;;;;;;;;26.10;93.60;;;;;;5084352;28;20041;-51
2021/05/17 12:30:30;;;;;;;15.38;4.30;;;26.10;93.70;;;;;;5083827;28;19950;-53
2021/05/17 12:33:00;;;;;;;17.50;4.25;;;26.10;93.70;;;;;;5083934;28;20040;-54
2021/05/17 12:35:36;;;;;;;16.50;3.95;;;26.10;93.70;;;;;;5083901;28;20020;-53
2021/05/17 12:38:21;;;;;;;13.70;3.90;;;26.10;93.80;;;;;;5087765;28;20016;-45
2021/05/17 12:40:53;;;;;;;17.77;7.00;;;26.10;93.80;;;;;;5088016;28;20024;-47
2021/05/17 12:43:21;;;;;;;15.98;6.28;;;26.10;93.80;;;;;;5087916;28;20025;-51
2021/05/17 12:45:48;;;;;;;25.30;9.90;;;26.10;94.00;;;;;;5087916;28;20048;-52
2021/05/17 12:48:18;;;;;;;23.00;8.55;;;26.10;93.90;;;;;;5087550;28;20076;-45
2021/05/17 12:50:46;;;;;;;21.45;6.55;;;26.10;94.00;;;;;;5087696;28;20021;-49
2021/05/17 12:53:19;;;;;;;17.42;5.15;;;26.20;93.90;;;;;;5087422;28;20008;-50
2021/05/17 12:55:49;;;;;;;17.25;6.05;;;26.20;94.00;;;;;;5087567;28;20032;-53
2021/05/17 12:58:40;;;;;;;22.77;5.45;;;26.20;93.90;;;;;;5087380;28;20012;-59
2021/05/17 13:01:16;;;;;;;17.92;5.43;;;26.20;93.90;;;;;;5087459;28;20359;-47
2021/05/17 13:03:46;;;;;;;19.13;5.68;;;26.20;93.90;;;;;;5087095;28;20261;-51
2021/05/17 13:06:20;;;;;;;20.48;5.78;;;26.20;94.00;;;;;;5087451;28;20095;-44
2021/05/17 13:09:03;;;;;;;16.52;4.88;;;26.20;94.00;;;;;;5087211;28;20354;-46
2021/05/17 13:11:37;;;;;;;20.38;4.95;;;26.20;94.10;;;;;;5086126;28;20024;-52
2021/05/17 13:14:23;;;;;;;19.00;5.07;;;26.20;94.20;;;;;;5086111;28;20309;-53
2021/05/17 13:16:54;;;;;;;19.77;5.40;;;26.20;94.20;;;;;;5087479;28;20033;-52
2021/05/17 13:19:40;;;;;;;15.00;5.35;;;26.20;94.30;;;;;;5082820;28;20024;-53
2021/05/17 13:30:31;;;;;;;;;;;26.20;94.30;;;;;;5087605;28;19916;-47
2021/05/17 13:32:57;;;;;;;;;;;26.20;94.10;;;;;;5084678;28;19908;-55
2021/05/17 13:35:23;;;;;;;;;;;26.20;94.00;;;;;;5077937;28;19912;-52
2021/05/17 13:37:50;;;;;;;;;;;26.10;93.60;;;;;;5076293;28;19901;-54
2021/05/17 13:40:17;;;;;;;20.23;6.10;;;25.90;93.70;;;;;;5076339;28;19916;-51
2021/05/17 13:42:47;;;;;;;24.08;5.57;;;25.90;93.90;;;;;;5077193;28;20020;-53
2021/05/17 13:45:14;;;;;;;;;;;25.90;93.80;;;;;;5076755;28;20208;-55
2021/05/17 13:47:42;;;;;;;;;;;25.90;93.90;;;;;;5076657;28;19923;-54
2021/05/17 13:50:09;;;;;;;;;;;25.90;94.00;;;;;;5077531;28;19915;-50
2021/05/17 13:52:35;;;;;;;;;;;25.90;93.90;;;;;;5076563;28;20254;-53
2021/05/17 13:55:04;;;;;;;;;;;26.00;93.90;;;;;;5074194;28;19928;-50
2021/05/17 13:57:31;;;;;;;;;;;25.90;93.90;;;;;;5073159;28;19939;-53
2021/05/17 13:59:57;;;;;;;;;;;25.90;93.80;;;;;;5086860;28;19900;-51
2021/05/17 14:02:23;;;;;;;;;;;25.80;93.90;;;;;;5086823;28;19934;-51
2021/05/17 14:04:49;;;;;;;;;;;25.80;94.00;;;;;;5086244;28;19943;-55
2021/05/17 14:07:19;;;;;;;;;;;25.80;94.00;;;;;;5102725;28;19904;-53
2021/05/17 14:09:45;;;;;;;;;;;25.80;94.00;;;;;;5086517;28;19901;-55
2021/05/17 14:12:12;;;;;;;;;;;25.80;94.20;;;;;;5085336;28;19905;-54
2021/05/17 14:14:38;;;;;;;;;;;25.80;94.30;;;;;;5086035;28;19909;-52
2021/05/17 14:17:04;;;;;;;;;;;25.80;94.20;;;;;;5102591;28;19905;-55
2021/05/17 14:19:31;;;;;;;;;;;25.60;94.00;;;;;;5066776;28;20212;-53
2021/05/17 14:21:58;;;;;;;;;;;25.60;94.10;;;;;;5066578;28;19917;-55
2021/05/17 14:24:24;;;;;;;;;;;25.60;94.00;;;;;;5068626;28;19908;-52
2021/05/17 14:26:51;;;;;;;;;;;25.60;94.10;;;;;;5077535;28;19915;-55
2021/05/17 14:29:17;;;;;;;;;;;25.60;94.00;;;;;;5090286;28;20058;-53
2021/05/17 14:31:46;;;;;;;;;;;25.60;93.90;;;;;;5076501;28;19908;-52
2021/05/17 14:34:12;;;;;;;;;;;25.60;93.80;;;;;;5073819;28;19908;-54
2021/05/17 14:36:50;;;;;;;;;;;25.60;93.70;;;;;;5067046;28;19936;-51
2021/05/17 14:39:17;;;;;;;;;;;25.60;93.80;;;;;;5066061;28;19907;-52
2021/05/17 14:41:46;;;;;;;;;;;25.70;93.70;;;;;;5066174;28;19908;-54
2021/05/17 14:44:12;;;;;;;;;;;25.80;93.70;;;;;;5065452;28;19939;-56
2021/05/17 14:46:39;;;;;;;;;;;25.80;93.40;;;;;;5066351;28;20185;-52
2021/05/17 14:49:08;;;;;;;;;;;25.80;93.60;;;;;;5065616;28;19901;-54
2021/05/17 14:51:34;;;;;;;;;;;25.90;93.00;;;;;;5065989;28;19979;-55
2021/05/17 14:54:04;;;;;;;;;;;26.00;93.20;;;;;;5065605;28;20121;-52